Time;durP1;ratioP1;P1;durP2;ratioP2;P2;SDS_P1;SDS_P2;PMS_P1;PMS_P2;Temp;Humidity;BMP_temperature;BMP_pressure;BME280_temperature;BME280_humidity;BME280_pressure;Samples;Min_cycle;Max_cycle;Signal;HPM_P1;HPM_P2
2022/01/05 00:00:08;;;;;;;;;4.00;2.00;;;;;-149.69;100.00;58464.25;6216592;22;47258;-92
2022/01/05 00:02:35;;;;;;;;;2.67;1.00;;;;;-149.69;100.00;58464.25;6216125;22;45455;-93
2022/01/05 00:05:02;;;;;;;;;0.00;0.00;;;;;-149.69;100.00;58464.25;6215972;22;45379;-94
2022/01/05 00:07:27;;;;;;;;;2.00;2.00;;;;;-149.69;100.00;58464.25;6216020;22;45429;-94
2022/01/05 00:09:52;;;;;;;;;1.67;1.00;;;;;-149.69;100.00;58464.25;6216007;22;46898;-93
2022/01/05 00:12:18;;;;;;;;;1.67;1.00;;;;;-149.69;100.00;58464.25;6241458;22;45173;-94
2022/01/05 00:14:43;;;;;;;;;2.00;2.00;;;;;-149.69;100.00;58464.25;6241903;22;45398;-94
2022/01/05 00:17:08;;;;;;;;;2.00;2.00;;;;;-149.69;100.00;58464.25;6215796;22;45363;-94
2022/01/05 00:19:34;;;;;;;;;2.00;2.00;;;;;-149.69;100.00;58464.25;6216093;22;46906;-94
2022/01/05 00:22:01;;;;;;;;;2.00;2.00;;;;;-149.69;100.00;58464.25;6241958;22;46031;-94
2022/01/05 00:24:27;;;;;;;;;2.00;1.33;;;;;-149.69;100.00;58464.25;6216796;22;45283;-93
2022/01/05 00:26:52;;;;;;;;;1.33;1.00;;;;;-149.69;100.00;58464.25;6214200;22;45551;-93
2022/01/05 00:29:18;;;;;;;;;1.00;1.00;;;;;-149.69;100.00;58464.25;6215852;22;47105;-94
2022/01/05 00:31:43;;;;;;;;;5.67;3.00;;;;;-149.69;100.00;58464.25;6216064;22;45419;-94
2022/01/05 00:34:09;;;;;;;;;2.00;0.33;;;;;-149.69;100.00;58464.25;6216333;22;45401;-94
2022/01/05 00:36:34;;;;;;;;;1.00;1.00;;;;;-149.69;100.00;58464.25;6216168;22;45295;-93
2022/01/05 00:39:00;;;;;;;;;6.00;1.00;;;;;-149.69;100.00;58464.25;6214515;22;48347;-94
2022/01/05 00:41:25;;;;;;;;;2.00;2.00;;;;;-149.69;100.00;58464.25;6241551;22;45235;-93
2022/01/05 00:43:51;;;;;;;;;1.00;0.00;;;;;-149.69;100.00;58464.25;6216443;22;45486;-95
2022/01/05 00:46:16;;;;;;;;;1.00;1.00;;;;;-149.69;100.00;58464.25;6216766;22;45365;-94
2022/01/05 00:48:41;;;;;;;;;4.33;2.33;;;;;-149.69;100.00;58464.25;6241722;22;47976;-94
2022/01/05 00:51:08;;;;;;;;;4.00;1.00;;;;;-149.69;100.00;58464.25;6216111;22;45276;-93
2022/01/05 00:53:34;;;;;;;;;2.00;1.00;;;;;-149.69;100.00;58464.25;6241957;22;45355;-93
2022/01/05 00:56:00;;;;;;;;;1.00;1.00;;;;;-149.69;100.00;58464.25;6215338;22;45337;-94
2022/01/05 01:01:01;;;;;;;;;2.00;2.00;;;;;-149.69;100.00;58464.25;6236080;22;45544;-96
2022/01/05 01:03:28;;;;;;;;;2.33;2.33;;;;;-149.69;100.00;58464.25;6216296;22;45797;-93
2022/01/05 01:05:54;;;;;;;;;3.00;2.00;;;;;-149.69;100.00;58464.25;6215661;22;45257;-95
2022/01/05 01:08:19;;;;;;;;;1.67;1.33;;;;;-149.69;100.00;58464.25;6215331;22;47409;-96
2022/01/05 01:10:46;;;;;;;;;1.67;1.00;;;;;-149.69;100.00;58464.25;6215747;22;45302;-95
2022/01/05 01:13:16;;;;;;;;;2.00;2.00;;;;;-149.69;100.00;58464.25;6215925;22;45423;-93
2022/01/05 01:15:43;;;;;;;;;3.67;1.33;;;;;-149.69;100.00;58464.25;6207199;22;46390;-93
2022/01/05 01:18:08;;;;;;;;;2.00;2.00;;;;;-149.69;100.00;58464.25;6215687;22;47159;-93
2022/01/05 01:20:33;;;;;;;;;2.00;2.00;;;;;-149.69;100.00;58464.25;6241043;22;45437;-94
2022/01/05 01:22:59;;;;;;;;;2.33;1.00;;;;;-149.69;100.00;58464.25;6216421;22;45367;-93
2022/01/05 01:25:24;;;;;;;;;3.00;2.00;;;;;-149.69;100.00;58464.25;6215460;22;45212;-92
2022/01/05 01:27:50;;;;;;;;;1.67;1.00;;;;;-149.69;100.00;58464.25;6239450;22;47563;-93
2022/01/05 01:30:15;;;;;;;;;2.67;1.00;;;;;-149.69;100.00;58464.25;6216061;22;45385;-94
2022/01/05 01:32:41;;;;;;;;;7.00;1.00;;;;;-149.69;100.00;58464.25;6216144;22;45773;-94
2022/01/05 01:35:07;;;;;;;;;5.67;1.00;;;;;-149.69;100.00;58464.25;6215460;22;45315;-94
2022/01/05 01:37:32;;;;;;;;;1.33;0.67;;;;;-149.69;100.00;58464.25;6215275;22;47172;-93
2022/01/05 01:39:58;;;;;;;;;5.00;2.00;;;;;-149.69;100.00;58464.25;6240964;22;46121;-93
2022/01/05 01:42:23;;;;;;;;;0.33;0.33;;;;;-149.69;100.00;58464.25;6215116;22;45311;-95
2022/01/05 01:44:48;;;;;;;;;1.67;1.67;;;;;-149.69;100.00;58464.25;6241726;22;45360;-93
2022/01/05 01:47:14;;;;;;;;;2.67;1.00;;;;;-149.69;100.00;58464.25;6215406;22;48174;-93
2022/01/05 01:49:40;;;;;;;;;2.00;1.33;;;;;-149.69;100.00;58464.25;6215310;22;46027;-93
2022/01/05 01:52:06;;;;;;;;;2.00;1.33;;;;;-149.69;100.00;58464.25;6216044;22;45332;-93
2022/01/05 01:54:52;;;;;;;;;1.00;1.00;;;;;-149.69;100.00;58464.25;6231076;22;45248;-94
2022/01/05 01:57:20;;;;;;;;;6.33;2.00;;;;;-149.69;100.00;58464.25;6212197;22;45350;-94
2022/01/05 01:59:46;;;;;;;;;2.00;2.00;;;;;-149.69;100.00;58464.25;6215324;22;45296;-93
2022/01/05 02:02:12;;;;;;;;;0.67;0.67;;;;;-149.69;100.00;58464.25;6215619;22;45720;-93
2022/01/05 02:04:39;;;;;;;;;2.00;1.00;;;;;-149.69;100.00;58464.25;6214996;22;45474;-93
2022/01/05 02:07:04;;;;;;;;;2.00;1.00;;;;;-149.69;100.00;58464.25;6240458;22;48039;-93
2022/01/05 02:09:30;;;;;;;;;1.00;1.00;;;;;-149.69;100.00;58464.25;6215421;22;45360;-93
2022/01/05 02:11:55;;;;;;;;;1.33;0.67;;;;;-149.69;100.00;58464.25;6215175;22;45348;-94
2022/01/05 02:14:21;;;;;;;;;2.33;1.00;;;;;-149.69;100.00;58464.25;6241015;22;45371;-95
2022/01/05 02:16:47;;;;;;;;;5.00;3.00;;;;;-149.69;100.00;58464.25;6215572;22;48004;-95
2022/01/05 02:19:13;;;;;;;;;1.00;1.00;;;;;-149.69;100.00;58464.25;6240954;22;45454;-94
2022/01/05 02:21:39;;;;;;;;;2.00;1.00;;;;;-149.69;100.00;58464.25;6215845;22;45363;-93
2022/01/05 02:24:07;;;;;;;;;4.00;2.00;;;;;-149.69;100.00;58464.25;6215549;22;45370;-95
2022/01/05 02:26:33;;;;;;;;;2.00;1.00;;;;;-149.69;100.00;58464.25;6215091;22;48023;-94
2022/01/05 02:28:59;;;;;;;;;2.00;2.00;;;;;-149.69;100.00;58464.25;6214316;22;46076;-94
2022/01/05 02:31:25;;;;;;;;;1.00;1.00;;;;;-149.69;100.00;58464.25;6215979;22;45244;-94
2022/01/05 02:33:51;;;;;;;;;1.00;1.00;;;;;-149.69;100.00;58464.25;6242018;22;45168;-95
2022/01/05 02:36:20;;;;;;;;;2.00;1.00;;;;;-149.69;100.00;58464.25;6214924;22;47271;-94
2022/01/05 02:38:47;;;;;;;;;1.67;1.33;;;;;-149.69;100.00;58464.25;6214926;22;45426;-94
2022/01/05 02:41:12;;;;;;;;;1.00;1.00;;;;;-149.69;100.00;58464.25;6215228;22;45254;-94
2022/01/05 02:43:39;;;;;;;;;2.00;1.00;;;;;-149.69;100.00;58464.25;6215291;22;45502;-94
2022/01/05 02:46:08;;;;;;;;;2.00;1.00;;;;;-149.69;100.00;58464.25;6215236;22;47417;-94
2022/01/05 02:48:34;;;;;;;;;7.67;1.33;;;;;-149.69;100.00;58464.25;6217227;22;45445;-94
2022/01/05 02:50:59;;;;;;;;;2.00;2.00;;;;;-149.69;100.00;58464.25;6214431;22;45480;-94
2022/01/05 02:53:25;;;;;;;;;2.33;1.00;;;;;-149.69;100.00;58464.25;6216079;22;45481;-94
2022/01/05 02:55:52;;;;;;;;;4.67;1.33;;;;;-149.69;100.00;58464.25;6214887;22;48173;-95
2022/01/05 02:58:18;;;;;;;;;2.00;2.00;;;;;-149.69;100.00;58464.25;6214477;22;45295;-93
2022/01/05 03:00:43;;;;;;;;;2.33;1.00;;;;;-149.69;100.00;58464.25;6240937;22;45251;-93
2022/01/05 03:03:09;;;;;;;;;2.33;2.33;;;;;-149.69;100.00;58464.25;6241049;22;45515;-94
2022/01/05 03:05:34;;;;;;;;;1.67;1.33;;;;;-149.69;100.00;58464.25;6214524;22;48332;-94
2022/01/05 03:08:00;;;;;;;;;2.33;2.00;;;;;-149.69;100.00;58464.25;6215131;22;45367;-94
2022/01/05 03:10:25;;;;;;;;;2.00;2.00;;;;;-149.69;100.00;58464.25;6214827;22;45744;-94
2022/01/05 03:12:51;;;;;;;;;1.33;1.00;;;;;-149.69;100.00;58464.25;6246938;22;45334;-94
2022/01/05 03:15:16;;;;;;;;;6.33;2.00;;;;;-149.69;100.00;58464.25;6269647;22;46815;-94
2022/01/05 03:17:42;;;;;;;;;2.33;1.33;;;;;-149.69;100.00;58464.25;6270099;22;44697;-94
2022/01/05 03:20:10;;;;;;;;;1.33;1.00;;;;;-149.69;100.00;58464.25;6243207;22;44714;-94
2022/01/05 03:22:36;;;;;;;;;2.00;0.67;;;;;-149.69;100.00;58464.25;6236057;22;44761;-94
2022/01/05 03:25:03;;;;;;;;;1.67;1.00;;;;;-149.69;100.00;58464.25;6215532;22;46941;-94
2022/01/05 03:27:28;;;;;;;;;3.67;0.00;;;;;-149.69;100.00;58464.25;6214132;22;45342;-95
2022/01/05 03:29:53;;;;;;;;;3.67;1.67;;;;;-149.69;100.00;58464.25;6215045;22;45440;-94
2022/01/05 03:32:19;;;;;;;;;1.00;1.00;;;;;-149.69;100.00;58464.25;6215275;22;45446;-93
2022/01/05 03:34:45;;;;;;;;;1.33;1.33;;;;;-149.69;100.00;58464.25;6214406;22;47100;-94
2022/01/05 03:37:11;;;;;;;;;2.00;2.00;;;;;-149.69;100.00;58464.25;6214921;22;45347;-95
2022/01/05 03:39:36;;;;;;;;;1.00;1.00;;;;;-149.69;100.00;58464.25;6225516;22;45370;-95
2022/01/05 03:42:02;;;;;;;;;1.00;1.00;;;;;-149.69;100.00;58464.25;6214049;22;45449;-94
2022/01/05 03:44:27;;;;;;;;;3.67;2.00;;;;;-149.69;100.00;58464.25;6215399;22;46928;-95
2022/01/05 03:46:53;;;;;;;;;2.00;1.00;;;;;-149.69;100.00;58464.25;6214420;22;45409;-94
2022/01/05 03:49:18;;;;;;;;;1.00;0.00;;;;;-149.69;100.00;58464.25;6240045;22;45418;-93
2022/01/05 03:51:45;;;;;;;;;5.00;2.00;;;;;-149.69;100.00;58464.25;6240719;22;45457;-94
2022/01/05 03:54:11;;;;;;;;;0.33;0.33;;;;;-149.69;100.00;58464.25;6240876;22;47416;-94
2022/01/05 03:56:39;;;;;;;;;2.33;0.00;;;;;-149.69;100.00;58464.25;6214649;22;45330;-94
2022/01/05 03:59:04;;;;;;;;;2.00;2.00;;;;;-149.69;100.00;58464.25;6214537;22;45272;-95
2022/01/05 04:01:30;;;;;;;;;3.33;1.67;;;;;-149.69;100.00;58464.25;6215306;22;45331;-95
2022/01/05 04:03:55;;;;;;;;;1.00;1.00;;;;;-149.69;100.00;58464.25;6240453;22;47766;-94
2022/01/05 04:06:20;;;;;;;;;2.00;2.00;;;;;-149.69;100.00;58464.25;6240181;22;45634;-94
2022/01/05 04:08:46;;;;;;;;;4.33;2.00;;;;;-149.69;100.00;58464.25;6239760;22;45259;-93
2022/01/05 04:11:11;;;;;;;;;3.33;2.00;;;;;-149.69;100.00;58464.25;6240121;22;45529;-94
2022/01/05 04:13:37;;;;;;;;;3.00;0.00;;;;;-149.69;100.00;58464.25;6214502;22;46933;-95
2022/01/05 04:16:03;;;;;;;;;2.00;1.67;;;;;-149.69;100.00;58464.25;6239525;22;45874;-94
2022/01/05 04:18:28;;;;;;;;;1.67;1.67;;;;;-149.69;100.00;58464.25;6213999;22;45337;-95
2022/01/05 04:20:54;;;;;;;;;4.33;0.67;;;;;-149.69;100.00;58464.25;6214490;22;45398;-94
2022/01/05 04:23:19;;;;;;;;;2.00;1.00;;;;;-149.69;100.00;58464.25;6240296;22;47043;-95
2022/01/05 04:25:44;;;;;;;;;1.00;1.00;;;;;-149.69;100.00;58464.25;6214286;22;45417;-94
2022/01/05 04:28:10;;;;;;;;;2.00;1.67;;;;;-149.69;100.00;58464.25;6239297;22;45445;-94
2022/01/05 04:30:35;;;;;;;;;1.00;1.00;;;;;-149.69;100.00;58464.25;6214435;22;45382;-94
2022/01/05 04:33:00;;;;;;;;;1.67;1.33;;;;;-149.69;100.00;58464.25;6214780;22;47117;-94
2022/01/05 04:35:26;;;;;;;;;1.33;1.00;;;;;-149.69;100.00;58464.25;6239895;22;45258;-95
2022/01/05 04:37:51;;;;;;;;;1.00;1.00;;;;;-149.69;100.00;58464.25;6214288;22;45283;-93
2022/01/05 04:40:17;;;;;;;;;4.00;0.33;;;;;-149.69;100.00;58464.25;6241394;22;45247;-95
2022/01/05 04:42:42;;;;;;;;;1.00;1.00;;;;;-149.69;100.00;58464.25;6239924;22;47857;-94
2022/01/05 04:45:08;;;;;;;;;3.33;1.67;;;;;-149.69;100.00;58464.25;6242670;22;45338;-93
2022/01/05 04:47:34;;;;;;;;;4.33;1.00;;;;;-149.69;100.00;58464.25;6241689;22;45660;-94
2022/01/05 04:49:59;;;;;;;;;2.00;1.00;;;;;-149.69;100.00;58464.25;6241054;22;45326;-94
2022/01/05 04:52:24;;;;;;;;;5.33;2.00;;;;;-149.69;100.00;58464.25;6241204;22;48170;-94
2022/01/05 04:54:50;;;;;;;;;3.67;1.33;;;;;-149.69;100.00;58464.25;6216827;22;45295;-94
2022/01/05 04:57:17;;;;;;;;;1.33;1.33;;;;;-149.69;100.00;58464.25;6214489;22;45523;-95
2022/01/05 04:59:42;;;;;;;;;2.33;2.00;;;;;-149.69;100.00;58464.25;6216308;22;45383;-95
2022/01/05 05:02:08;;;;;;;;;3.00;2.00;;;;;-149.69;100.00;58464.25;6215501;22;46779;-95
2022/01/05 05:04:34;;;;;;;;;1.00;1.00;;;;;-149.69;100.00;58464.25;6217307;22;45421;-94
2022/01/05 05:06:59;;;;;;;;;3.33;2.00;;;;;-149.69;100.00;58464.25;6216687;22;45747;-93
2022/01/05 05:09:24;;;;;;;;;3.00;2.00;;;;;-149.69;100.00;58464.25;6241102;22;45445;-94
2022/01/05 05:11:51;;;;;;;;;6.33;1.33;;;;;-149.69;100.00;58464.25;6215037;22;47926;-94
2022/01/05 05:14:16;;;;;;;;;2.00;1.00;;;;;-149.69;100.00;58464.25;6216362;22;45677;-93
2022/01/05 05:16:42;;;;;;;;;2.33;2.33;;;;;-149.69;100.00;58464.25;6240105;22;45337;-93
2022/01/05 05:19:07;;;;;;;;;1.33;1.00;;;;;-149.69;100.00;58464.25;6214933;22;45348;-96
2022/01/05 05:21:33;;;;;;;;;5.00;1.00;;;;;-149.69;100.00;58464.25;6240521;22;47064;-95
2022/01/05 05:24:39;;;;;;;;;2.67;1.00;;;;;-149.69;100.00;58464.25;6248442;22;45818;-94
2022/01/05 05:28:24;;;;;;;;;1.00;1.00;;;;;-149.69;100.00;58464.25;6227364;22;44681;-95
2022/01/05 05:36:04;;;;;;;;;3.33;2.00;;;;;-149.69;100.00;58464.25;6243605;22;45254;-95
2022/01/05 05:38:29;;;;;;;;;5.00;2.00;;;;;-149.69;100.00;58464.25;6236753;22;45410;-94
2022/01/05 05:40:55;;;;;;;;;2.00;2.00;;;;;-149.69;100.00;58464.25;6238817;22;45045;-95
2022/01/05 05:44:08;;;;;;;;;6.50;2.25;;;;;-149.69;100.00;58464.25;6238379;22;45559;-95
2022/01/05 05:46:54;;;;;;;;;2.00;2.00;;;;;-149.69;100.00;58464.25;6220242;22;45416;-95
2022/01/05 05:49:19;;;;;;;;;2.25;2.25;;;;;-149.69;100.00;58464.25;6214640;22;45354;-95
2022/01/05 05:51:45;;;;;;;;;2.00;1.67;;;;;-149.69;100.00;58464.25;6240706;22;45402;-95
2022/01/05 05:54:10;;;;;;;;;5.00;5.00;;;;;-149.69;100.00;58464.25;6241714;22;48198;-95
2022/01/05 05:56:36;;;;;;;;;2.00;0.67;;;;;-149.69;100.00;58464.25;6214153;22;45697;-95
2022/01/05 05:59:01;;;;;;;;;2.00;2.00;;;;;-149.69;100.00;58464.25;6213750;22;45382;-94
2022/01/05 06:01:27;;;;;;;;;2.00;2.00;;;;;-149.69;100.00;58464.25;6214860;22;45295;-95
2022/01/05 06:03:53;;;;;;;;;2.00;2.00;;;;;-149.69;100.00;58464.25;6214787;22;47223;-96
2022/01/05 06:06:18;;;;;;;;;1.00;1.00;;;;;-149.69;100.00;58464.25;6240375;22;45262;-95
2022/01/05 06:08:44;;;;;;;;;1.67;1.67;;;;;-149.69;100.00;58464.25;6240107;22;45314;-95
2022/01/05 06:11:09;;;;;;;;;1.33;1.33;;;;;-149.69;100.00;58464.25;6214359;22;45470;-95
2022/01/05 06:13:34;;;;;;;;;0.33;0.33;;;;;-149.69;100.00;58464.25;6215571;22;46973;-95
2022/01/05 06:16:00;;;;;;;;;1.00;1.00;;;;;-149.69;100.00;58464.25;6215250;22;45700;-95
2022/01/05 06:18:31;;;;;;;;;1.00;1.00;;;;;-149.69;100.00;58464.25;6241602;22;45558;-96
2022/01/05 06:20:57;;;;;;;;;1.00;1.00;;;;;-149.69;100.00;58464.25;6240324;22;45388;-95
2022/01/05 06:23:22;;;;;;;;;5.00;1.00;;;;;-149.69;100.00;58464.25;6214613;22;48083;-95
2022/01/05 06:26:27;;;;;;;;;4.33;3.33;;;;;-149.69;100.00;58464.25;6214927;22;45941;-95
2022/01/05 06:29:12;;;;;;;;;3.00;1.00;;;;;-149.69;100.00;58464.25;6234139;22;46565;-96
2022/01/05 06:31:38;;;;;;;;;4.67;2.00;;;;;-149.69;100.00;58464.25;6215016;22;45472;-96
2022/01/05 06:34:03;;;;;;;;;1.33;1.33;;;;;-149.69;100.00;58464.25;6214764;22;47128;-95
2022/01/05 06:36:29;;;;;;;;;2.75;1.75;;;;;-149.69;100.00;58464.25;6215290;22;45335;-95
2022/01/05 06:38:54;;;;;;;;;3.00;3.00;;;;;-149.69;100.00;58464.25;6240685;22;45333;-96
2022/01/05 06:41:19;;;;;;;;;2.25;2.25;;;;;-149.69;100.00;58464.25;6240422;22;45342;-95
2022/01/05 06:43:45;;;;;;;;;1.00;1.00;;;;;-149.69;100.00;58464.25;6214203;22;47188;-94
2022/01/05 06:46:10;;;;;;;;;1.00;1.00;;;;;-149.69;100.00;58464.25;6215755;22;45303;-95
2022/01/05 06:48:36;;;;;;;;;4.67;2.00;;;;;-149.69;100.00;58464.25;6240445;22;45699;-95
2022/01/05 06:51:01;;;;;;;;;3.33;1.33;;;;;-149.69;100.00;58464.25;6206356;22;45670;-93
2022/01/05 06:53:27;;;;;;;;;1.33;1.00;;;;;-149.69;100.00;58464.25;6217175;22;48039;-95
2022/01/05 06:55:53;;;;;;;;;2.00;2.00;;;;;-149.69;100.00;58464.25;6215807;22;45334;-95
2022/01/05 06:58:18;;;;;;;;;2.00;2.00;;;;;-149.69;100.00;58464.25;6245404;22;45429;-96
2022/01/05 07:00:44;;;;;;;;;3.33;3.33;;;;;-149.69;100.00;58464.25;6244652;22;44783;-93
2022/01/05 07:03:10;;;;;;;;;2.00;2.00;;;;;-149.69;100.00;58464.25;6242647;22;47257;-95
2022/01/05 07:05:35;;;;;;;;;2.00;1.00;;;;;-149.69;100.00;58464.25;6243785;22;45100;-96
2022/01/05 07:08:01;;;;;;;;;2.00;1.00;;;;;-149.69;100.00;58464.25;6239503;22;45319;-96
2022/01/05 07:10:26;;;;;;;;;4.33;1.67;;;;;-149.69;100.00;58464.25;6242987;22;45397;-95
2022/01/05 07:12:52;;;;;;;;;1.00;1.00;;;;;-149.69;100.00;58464.25;6238954;22;47042;-96
2022/01/05 07:15:17;;;;;;;;;1.67;1.33;;;;;-149.69;100.00;58464.25;6215766;22;45493;-95
2022/01/05 07:17:43;;;;;;;;;2.00;2.00;;;;;-149.69;100.00;58464.25;6218752;22;45423;-96
2022/01/05 07:20:09;;;;;;;;;1.33;1.33;;;;;-149.69;100.00;58464.25;6215449;22;45216;-95
2022/01/05 07:22:36;;;;;;;;;2.00;1.33;;;;;-149.69;100.00;58464.25;6214748;22;48232;-94
2022/01/05 07:25:02;;;;;;;;;0.33;0.00;;;;;-149.69;100.00;58464.25;6215734;22;45552;-96
2022/01/05 07:27:28;;;;;;;;;1.67;1.67;;;;;-149.69;100.00;58464.25;6213729;22;45453;-96
2022/01/05 07:29:53;;;;;;;;;1.00;1.00;;;;;-149.69;100.00;58464.25;6239289;22;45299;-94
2022/01/05 07:32:19;;;;;;;;;1.00;1.00;;;;;-149.69;100.00;58464.25;6240136;22;47122;-94
2022/01/05 07:34:44;;;;;;;;;3.00;1.00;;;;;-149.69;100.00;58464.25;6214836;22;45563;-93
2022/01/05 07:37:09;;;;;;;;;1.67;1.67;;;;;-149.69;100.00;58464.25;6212479;22;45213;-92
2022/01/05 07:39:36;;;;;;;;;5.00;1.33;;;;;-149.69;100.00;58464.25;6238404;22;45228;-92
2022/01/05 07:42:01;;;;;;;;;1.00;1.00;;;;;-149.69;100.00;58464.25;6210841;22;48085;-91
2022/01/05 07:44:27;;;;;;;;;4.00;1.00;;;;;-149.69;100.00;58464.25;6213156;22;45550;-91
2022/01/05 07:46:52;;;;;;;;;1.67;1.00;;;;;-149.69;100.00;58464.25;6238056;22;45442;-89
2022/01/05 07:49:19;;;;;;;;;3.00;1.33;;;;;-149.69;100.00;58464.25;6238666;22;45711;-89
2022/01/05 07:51:44;;;;;;;;;6.00;2.33;;;;;-149.69;100.00;58464.25;6237962;22;47020;-93
2022/01/05 07:54:09;;;;;;;;;1.67;1.67;;;;;-149.69;100.00;58464.25;6240650;22;45296;-91
2022/01/05 07:56:35;;;;;;;;;3.33;3.33;;;;;-149.69;100.00;58464.25;6212693;22;45371;-91
2022/01/05 07:59:00;;;;;;;;;4.00;1.00;;;;;-149.69;100.00;58464.25;6212681;22;45388;-90
2022/01/05 08:01:26;;;;;;;;;2.00;2.00;;;;;-149.69;100.00;58464.25;6212915;22;47284;-90
2022/01/05 08:03:51;;;;;;;;;0.33;0.00;;;;;-149.69;100.00;58464.25;6212388;22;45432;-91
2022/01/05 08:06:20;;;;;;;;;1.00;1.00;;;;;-149.69;100.00;58464.25;6239928;22;45215;-90
2022/01/05 08:08:46;;;;;;;;;4.33;1.67;;;;;-149.69;100.00;58464.25;6217606;22;45445;-91
2022/01/05 08:11:12;;;;;;;;;6.00;4.33;;;;;-149.69;100.00;58464.25;6225782;22;47095;-90
2022/01/05 08:13:38;;;;;;;;;4.33;2.00;;;;;-149.69;100.00;58464.25;6216223;22;45319;-90
2022/01/05 08:16:04;;;;;;;;;1.00;1.00;;;;;-149.69;100.00;58464.25;6213846;22;45560;-88
2022/01/05 08:18:29;;;;;;;;;2.00;2.00;;;;;-149.69;100.00;58464.25;6243094;22;45299;-88
2022/01/05 08:20:55;;;;;;;;;3.33;2.67;;;;;-149.69;100.00;58464.25;6240482;22;45846;-91
2022/01/05 08:23:22;;;;;;;;;3.67;2.00;;;;;-149.69;100.00;58464.25;6242629;22;45576;-93
2022/01/05 08:25:48;;;;;;;;;8.00;4.00;;;;;-149.69;100.00;58464.25;6247364;22;45231;-90
2022/01/05 08:28:15;;;;;;;;;1.33;0.33;;;;;-149.69;100.00;58464.25;6220598;22;45522;-90
2022/01/05 08:30:43;;;;;;;;;4.00;2.00;;;;;-149.69;100.00;58464.25;6249045;22;45529;-88
2022/01/05 08:33:09;;;;;;;;;1.00;1.00;;;;;-149.69;100.00;58464.25;6245851;22;45341;-88
2022/01/05 08:35:35;;;;;;;;;1.67;1.67;;;;;-149.69;100.00;58464.25;6251227;22;45370;-88
2022/01/05 08:38:00;;;;;;;;;1.67;1.67;;;;;-149.69;100.00;58464.25;6249807;22;45696;-88
2022/01/05 08:40:26;;;;;;;;;2.00;2.00;;;;;-149.69;100.00;58464.25;6248336;22;45315;-88
2022/01/05 08:42:56;;;;;;;;;4.00;2.00;;;;;-149.69;100.00;58464.25;6224266;22;45650;-87
2022/01/05 08:45:22;;;;;;;;;2.00;2.00;;;;;-149.69;100.00;58464.25;6231780;22;45057;-88
2022/01/05 08:47:50;;;;;;;;;3.00;1.67;;;;;-149.69;100.00;58464.25;6228209;22;45381;-88
2022/01/05 08:50:21;;;;;;;;;6.00;4.00;;;;;-149.69;100.00;58464.25;6250152;22;47190;-87
2022/01/05 08:52:48;;;;;;;;;1.33;1.33;;;;;-149.69;100.00;58464.25;6252033;22;44677;-87
2022/01/05 08:55:16;;;;;;;;;3.33;3.33;;;;;-149.69;100.00;58464.25;6253057;22;45437;-88
2022/01/05 08:57:42;;;;;;;;;1.67;1.67;;;;;-149.69;100.00;58464.25;6222060;22;45192;-88
2022/01/05 09:00:09;;;;;;;;;4.00;2.67;;;;;-149.69;100.00;58464.25;6222478;22;47120;-87
2022/01/05 09:02:35;;;;;;;;;3.33;1.00;;;;;-149.69;100.00;58464.25;6224582;22;45396;-87
2022/01/05 09:05:01;;;;;;;;;1.67;1.67;;;;;-149.69;100.00;58464.25;6219714;22;45301;-88
2022/01/05 09:07:27;;;;;;;;;3.33;2.00;;;;;-149.69;100.00;58464.25;6251453;22;45322;-88
2022/01/05 09:09:52;;;;;;;;;1.33;1.33;;;;;-149.69;100.00;58464.25;6246027;22;49365;-89
2022/01/05 09:12:17;;;;;;;;;3.00;2.00;;;;;-149.69;100.00;58464.25;6250090;22;45321;-88
2022/01/05 09:14:43;;;;;;;;;1.00;1.00;;;;;-149.69;100.00;58464.25;6248756;22;45341;-88
2022/01/05 09:17:08;;;;;;;;;4.00;2.00;;;;;-149.69;100.00;58464.25;6245464;22;45291;-88
2022/01/05 09:19:34;;;;;;;;;2.00;2.00;;;;;-149.69;100.00;58464.25;6246105;22;45337;-88
2022/01/05 09:22:00;;;;;;;;;2.67;1.33;;;;;-149.69;100.00;58464.25;6249505;22;45389;-89
2022/01/05 09:24:26;;;;;;;;;1.33;1.33;;;;;-149.69;100.00;58464.25;6226517;22;45300;-90
2022/01/05 09:26:52;;;;;;;;;5.67;1.00;;;;;-149.69;100.00;58464.25;6246720;22;45208;-87
2022/01/05 09:29:18;;;;;;;;;5.33;3.00;;;;;-149.69;100.00;58464.25;6241209;22;45338;-89
2022/01/05 09:31:44;;;;;;;;;1.00;1.00;;;;;-149.69;100.00;58464.25;6241744;22;45457;-88
2022/01/05 09:34:11;;;;;;;;;3.00;2.00;;;;;-149.69;100.00;58464.25;6218903;22;45215;-89
2022/01/05 09:36:42;;;;;;;;;3.33;1.67;;;;;-149.69;100.00;58464.25;6245271;22;45580;-88
2022/01/05 09:42:00;;;;;;;;;5.33;5.33;;;;;-149.69;100.00;58464.25;6242944;22;45380;-88
2022/01/05 09:44:41;;;;;;;;;3.00;2.00;;;;;-149.69;100.00;58464.25;6249547;22;45148;-89
2022/01/05 09:47:23;;;;;;;;;2.33;1.33;;;;;-149.69;100.00;58464.25;6247975;22;45279;-88
2022/01/05 09:49:54;;;;;;;;;6.33;2.00;;;;;-149.69;100.00;58464.25;6241778;22;46764;-89
2022/01/05 09:52:22;;;;;;;;;1.33;1.33;;;;;-149.69;100.00;58464.25;6246735;22;45425;-89
2022/01/05 09:54:48;;;;;;;;;4.67;2.33;;;;;-149.69;100.00;58464.25;6241745;22;45415;-88
2022/01/05 09:57:15;;;;;;;;;3.00;1.00;;;;;-149.69;100.00;58464.25;6238473;22;45402;-88
2022/01/05 09:59:41;;;;;;;;;3.00;3.00;;;;;-149.69;100.00;58464.25;6209302;22;46112;-89
2022/01/05 10:02:07;;;;;;;;;5.33;2.33;;;;;-149.69;100.00;58464.25;6243283;22;45853;-89
2022/01/05 10:04:35;;;;;;;;;3.00;2.67;;;;;-149.69;100.00;58464.25;6213392;22;45497;-89
2022/01/05 10:07:00;;;;;;;;;2.00;2.00;;;;;-149.69;100.00;58464.25;6242276;22;45611;-89
2022/01/05 10:09:26;;;;;;;;;3.00;3.00;;;;;-149.69;100.00;58464.25;6241600;22;45252;-88
2022/01/05 10:11:51;;;;;;;;;5.00;2.00;;;;;-149.69;100.00;58464.25;6216096;22;45327;-88
2022/01/05 10:14:16;;;;;;;;;5.67;2.00;;;;;-149.69;100.00;58464.25;6245780;22;45324;-87
2022/01/05 10:17:00;;;;;;;;;9.00;3.00;;;;;-149.69;100.00;58464.25;6244251;22;45384;-88
2022/01/05 10:19:25;;;;;;;;;3.67;3.00;;;;;-149.69;100.00;58464.25;6242585;22;45416;-88
2022/01/05 10:21:51;;;;;;;;;2.67;2.67;;;;;-149.69;100.00;58464.25;6243560;22;45754;-88
2022/01/05 10:24:16;;;;;;;;;3.00;2.00;;;;;-149.69;100.00;58464.25;6249024;22;45302;-88
2022/01/05 10:26:42;;;;;;;;;5.00;2.33;;;;;-149.69;100.00;58464.25;6240673;22;45330;-88
2022/01/05 10:29:15;;;;;;;;;1.00;1.00;;;;;-149.69;100.00;58464.25;6237195;22;46176;-89
2022/01/05 10:31:42;;;;;;;;;1.67;1.67;;;;;-149.69;100.00;58464.25;6213074;22;45346;-89
2022/01/05 10:34:15;;;;;;;;;6.00;4.33;;;;;-149.69;100.00;58464.25;6215105;22;45225;-89
2022/01/05 10:36:52;;;;;;;;;3.00;2.00;;;;;-149.69;100.00;58464.25;6242811;22;45473;-88
2022/01/05 10:39:32;;;;;;;;;5.00;2.33;;;;;-149.69;100.00;58464.25;6240294;22;46598;-88
2022/01/05 10:42:28;;;;;;;;;6.33;2.00;;;;;-149.69;100.00;58464.25;6240820;22;45560;-88
2022/01/05 10:44:54;;;;;;;;;4.33;1.00;;;;;-149.69;100.00;58464.25;6243333;22;45420;-89
2022/01/05 10:47:19;;;;;;;;;5.67;3.67;;;;;-149.69;100.00;58464.25;6244441;22;45279;-89
2022/01/05 10:49:44;;;;;;;;;7.67;4.33;;;;;-149.69;100.00;58464.25;6244755;22;58683;-88
2022/01/05 10:52:22;;;;;;;;;6.67;3.00;;;;;-149.69;100.00;58464.25;6244113;22;45879;-89
2022/01/05 10:54:49;;;;;;;;;6.67;2.00;;;;;-149.69;100.00;58464.25;6249052;22;45241;-88
2022/01/05 10:57:14;;;;;;;;;5.67;3.00;;;;;-149.69;100.00;58464.25;6244843;22;45310;-89
2022/01/05 10:59:46;;;;;;;;;5.33;3.33;;;;;-149.69;100.00;58464.25;6244328;22;45369;-89
2022/01/05 11:02:23;;;;;;;;;6.00;3.00;;;;;-149.69;100.00;58464.25;6243402;22;45454;-88
2022/01/05 11:04:52;;;;;;;;;4.00;1.67;;;;;-149.69;100.00;58464.25;6241862;22;45360;-89
2022/01/05 11:07:20;;;;;;;;;5.00;2.00;;;;;-149.69;100.00;58464.25;6215589;22;45401;-88
2022/01/05 11:09:58;;;;;;;;;3.00;2.00;;;;;-149.69;100.00;58464.25;6242618;22;45363;-88
2022/01/05 11:12:50;;;;;;;;;8.67;2.67;;;;;-149.69;100.00;58464.25;6241950;22;45666;-88
2022/01/05 11:15:28;;;;;;;;;3.67;2.33;;;;;-149.69;100.00;58464.25;6239182;22;45290;-88
2022/01/05 11:18:16;;;;;;;;;2.33;1.33;;;;;-149.69;100.00;58464.25;6215905;22;45364;-89
2022/01/05 11:20:42;;;;;;;;;4.00;2.00;;;;;-149.69;100.00;58464.25;6237362;22;45674;-89